XA00 weather

Prose Field
Justin, Texas, United States

Public forecast

Using degrees Fahrenheit for public forecast. Weather courtesy of forecast.io.

Closest aviation weather report (METAR) to Prose Field

Closest report is Denton Municipal Airport, 5.2 nm (9.7 km) NE. Retrieved 2020/08/06 06:53 UTC (21 minutes ago):

KDTO 060653Z AUTO 11005KT 10SM FEW014 24/22 A2996 RMK AO2 SLP138 T02440217

Closest aviation forecast (TAF) to Prose Field

Closest forecast is Fort Worth Alliance Airport, 9.8 nm (18.1 km) SSW. Retrieved 2020/08/06 06:34 UTC (40 minutes ago):

TAF KAFW 060532Z 0606/0706 11009KT P6SM FEW015 SCT120 FM061500 17010KT P6SM SCT100